createdAt,value
2022-08-19T00:00:15.209Z,21.64
2022-08-19T00:03:38.632Z,21.61
2022-08-19T00:07:01.701Z,21.59
2022-08-19T00:10:25.017Z,21.61
2022-08-19T00:13:47.320Z,21.65
2022-08-19T00:17:09.784Z,21.69
2022-08-19T00:20:32.798Z,21.69
2022-08-19T00:23:54.878Z,21.69
2022-08-19T00:27:26.313Z,21.68
2022-08-19T00:30:48.655Z,21.66
2022-08-19T00:34:10.418Z,21.68
2022-08-19T00:37:35.585Z,21.65
2022-08-19T00:40:57.710Z,21.63
2022-08-19T00:44:26.950Z,21.62
2022-08-19T00:47:49.285Z,21.64
2022-08-19T00:51:11.156Z,21.67
2022-08-19T00:54:34.631Z,21.68
2022-08-19T00:57:59.879Z,21.69
2022-08-19T01:01:21.901Z,21.71
2022-08-19T01:04:43.638Z,21.66
2022-08-19T01:08:07.869Z,21.62
2022-08-19T01:11:33.490Z,21.62
2022-08-19T01:14:56.866Z,21.61
2022-08-19T01:18:22.500Z,21.61
2022-08-19T01:21:48.887Z,21.60
2022-08-19T01:25:15.045Z,21.57
2022-08-19T01:28:40.979Z,21.54
2022-08-19T01:32:05.285Z,21.54
2022-08-19T01:35:29.620Z,21.53
2022-08-19T01:38:51.501Z,21.50
2022-08-19T01:42:14.758Z,21.52
2022-08-19T01:45:37.372Z,21.53
2022-08-19T01:48:59.438Z,21.50
2022-08-19T01:52:21.123Z,21.49
2022-08-19T01:55:45.078Z,21.47
2022-08-19T01:59:14.345Z,21.47
2022-08-19T02:02:36.112Z,21.48
2022-08-19T02:06:00.583Z,21.46
2022-08-19T02:09:22.411Z,21.44
2022-08-19T02:12:44.521Z,21.41
2022-08-19T02:16:07.977Z,21.38
2022-08-19T02:19:29.549Z,21.35
2022-08-19T02:22:51.685Z,21.33
2022-08-19T02:26:14.438Z,21.32
2022-08-19T02:29:36.623Z,21.28
2022-08-19T02:33:00.446Z,21.25
2022-08-19T02:36:22.214Z,21.29
2022-08-19T02:39:43.937Z,21.24
2022-08-19T02:43:08.337Z,21.24
2022-08-19T02:46:33.150Z,21.26
2022-08-19T02:49:56.202Z,21.21
2022-08-19T02:53:18.419Z,21.22
2022-08-19T02:56:42.699Z,21.18
2022-08-19T03:00:08.987Z,21.09
2022-08-19T03:03:30.674Z,21.09
2022-08-19T03:06:57.546Z,21.09
2022-08-19T03:10:21.427Z,21.02
2022-08-19T03:13:44.278Z,21.05
2022-08-19T03:17:07.429Z,20.99
2022-08-19T03:20:29.196Z,21.00
2022-08-19T03:23:52.746Z,21.03
2022-08-19T03:27:15.133Z,21.03
2022-08-19T03:30:37.007Z,21.02
2022-08-19T03:33:59.220Z,21.08
2022-08-19T03:37:21.330Z,21.11
2022-08-19T03:40:44.831Z,21.08
2022-08-19T03:44:08.474Z,21.07
2022-08-19T03:47:38.801Z,21.10
2022-08-19T03:51:01.174Z,21.10
2022-08-19T03:54:24.586Z,21.12
2022-08-19T03:57:48.674Z,21.16
2022-08-19T04:01:12.903Z,21.10
2022-08-19T04:04:34.446Z,21.09
2022-08-19T04:07:58.070Z,21.09
2022-08-19T04:11:22.642Z,21.10
2022-08-19T04:15:07.153Z,21.10
2022-08-19T04:18:33.581Z,21.08
2022-08-19T04:21:58.284Z,21.04
2022-08-19T04:25:19.913Z,20.86
2022-08-19T04:28:41.804Z,20.88
2022-08-19T04:32:06.462Z,20.89
2022-08-19T04:35:37.389Z,20.93
2022-08-19T04:39:01.857Z,20.94
2022-08-19T04:42:40.692Z,20.99
2022-08-19T04:46:07.011Z,20.99
2022-08-19T04:49:30.975Z,21.04
2022-08-19T04:52:54.372Z,20.99
2022-08-19T04:56:20.473Z,20.90
2022-08-19T04:59:42.079Z,20.93
2022-08-19T05:03:04.258Z,20.91
2022-08-19T05:06:33.782Z,20.96
2022-08-19T05:09:59.098Z,20.93
2022-08-19T05:13:22.050Z,20.86
2022-08-19T05:16:44.046Z,20.72
2022-08-19T05:20:23.950Z,20.73
2022-08-19T05:23:47.145Z,20.78
2022-08-19T05:27:09.200Z,20.90
2022-08-19T05:30:46.439Z,20.93
2022-08-19T05:34:20.017Z,20.94
2022-08-19T05:37:42.353Z,21.01
2022-08-19T05:41:09.417Z,21.09
2022-08-19T05:44:33.494Z,21.07
2022-08-19T05:47:55.388Z,21.15
2022-08-19T05:51:17.892Z,21.21
2022-08-19T05:54:41.230Z,21.24
2022-08-19T05:58:04.406Z,21.29
2022-08-19T06:01:28.257Z,21.32
2022-08-19T06:04:50.555Z,21.42
2022-08-19T06:08:12.092Z,21.46
2022-08-19T06:11:37.415Z,21.54
2022-08-19T06:15:01.229Z,21.62
2022-08-19T06:18:24.270Z,21.74
2022-08-19T06:21:48.751Z,21.79
2022-08-19T06:25:11.292Z,21.85
2022-08-19T06:28:33.895Z,21.97
2022-08-19T06:31:59.068Z,22.05
2022-08-19T06:35:21.030Z,22.01
2022-08-19T06:38:42.694Z,22.09
2022-08-19T06:42:11.084Z,22.19
2022-08-19T06:45:35.715Z,22.28
2022-08-19T06:49:02.762Z,22.35
2022-08-19T06:52:26.006Z,22.41
2022-08-19T06:55:48.097Z,22.47
2022-08-19T06:59:11.837Z,22.47
2022-08-19T07:02:33.522Z,22.48
2022-08-19T07:05:57.341Z,22.36
2022-08-19T07:09:20.530Z,22.33
2022-08-19T07:12:43.210Z,22.40
2022-08-19T07:16:07.271Z,22.44
2022-08-19T07:19:30.953Z,22.50
2022-08-19T07:22:54.174Z,22.55
2022-08-19T07:26:27.824Z,22.57
2022-08-19T07:29:57.365Z,22.58
2022-08-19T07:33:20.264Z,22.59
2022-08-19T07:36:42.943Z,22.63
2022-08-19T07:40:07.125Z,22.68
2022-08-19T07:43:34.778Z,22.70
2022-08-19T07:47:00.909Z,22.74
2022-08-19T07:50:23.794Z,22.76
2022-08-19T07:53:46.412Z,22.76
2022-08-19T07:57:10.547Z,22.74
2022-08-19T08:00:32.273Z,22.74
2022-08-19T08:04:12.697Z,22.73
2022-08-19T08:07:51.678Z,22.68
2022-08-19T08:11:14.062Z,22.70
2022-08-19T08:14:44.081Z,22.65
2022-08-19T08:18:06.592Z,22.62
2022-08-19T08:21:29.250Z,22.66
2022-08-19T08:24:50.990Z,22.71
2022-08-19T08:28:17.440Z,22.78
2022-08-19T08:31:42.526Z,22.80
2022-08-19T08:35:04.216Z,22.79
2022-08-19T08:38:25.715Z,22.75
2022-08-19T08:41:56.625Z,22.74
2022-08-19T08:45:19.994Z,22.78
2022-08-19T08:48:52.638Z,22.83
2022-08-19T08:52:20.961Z,22.84
2022-08-19T08:55:43.935Z,22.88
2022-08-19T08:59:10.970Z,22.89
2022-08-19T09:02:33.083Z,22.90
2022-08-19T09:06:03.649Z,22.90
2022-08-19T09:09:33.478Z,22.85
2022-08-19T09:13:09.371Z,22.86
2022-08-19T09:16:32.345Z,22.99
2022-08-19T09:19:59.592Z,23.11
2022-08-19T09:23:26.912Z,23.23
2022-08-19T09:26:52.534Z,23.23
2022-08-19T09:30:18.792Z,23.26
2022-08-19T09:33:41.878Z,23.12
2022-08-19T09:37:04.038Z,23.04
2022-08-19T09:40:28.028Z,23.15
2022-08-19T09:43:54.781Z,23.25
2022-08-19T09:47:16.968Z,23.34
2022-08-19T09:50:51.549Z,23.45
2022-08-19T09:54:13.988Z,23.47
2022-08-19T09:57:37.588Z,23.47
2022-08-19T10:01:00.472Z,23.50
2022-08-19T10:04:23.078Z,23.59
2022-08-19T10:07:47.240Z,23.58
2022-08-19T10:11:28.279Z,23.65
2022-08-19T10:14:55.430Z,23.63
2022-08-19T10:18:19.103Z,23.76
2022-08-19T10:21:41.438Z,23.82
2022-08-19T10:25:03.205Z,23.81
2022-08-19T10:28:25.078Z,23.64
2022-08-19T10:32:01.491Z,23.67
2022-08-19T10:35:25.982Z,23.65
2022-08-19T10:38:56.656Z,23.76
2022-08-19T10:42:19.778Z,23.73
2022-08-19T10:45:52.591Z,23.83
2022-08-19T10:49:16.198Z,23.95
2022-08-19T10:52:38.739Z,23.97
2022-08-19T10:56:17.727Z,23.98
2022-08-19T10:59:40.042Z,24.00
2022-08-19T11:03:01.700Z,24.07
2022-08-19T11:06:26.390Z,24.13
2022-08-19T11:09:48.602Z,24.26
2022-08-19T11:13:10.654Z,24.21
2022-08-19T11:16:32.780Z,24.22
2022-08-19T11:19:54.627Z,24.14
2022-08-19T11:23:17.894Z,24.26
2022-08-19T11:26:42.362Z,24.27
2022-08-19T11:30:04.758Z,24.34
2022-08-19T11:33:29.060Z,24.47
2022-08-19T11:36:52.843Z,24.55
2022-08-19T11:40:16.493Z,24.38
2022-08-19T11:43:40.919Z,24.39
2022-08-19T11:47:08.827Z,24.40
2022-08-19T11:50:30.919Z,24.50
2022-08-19T11:53:53.763Z,24.58
2022-08-19T11:57:18.020Z,24.64
2022-08-19T12:00:41.085Z,24.54
2022-08-19T12:04:06.176Z,24.57
2022-08-19T12:07:28.002Z,24.52
2022-08-19T12:10:50.003Z,24.55
2022-08-19T12:14:15.748Z,24.48
2022-08-19T12:17:38.747Z,24.56
2022-08-19T12:21:01.510Z,24.69
2022-08-19T12:24:24.449Z,24.79
2022-08-19T12:27:56.767Z,24.87
2022-08-19T12:31:21.561Z,24.94
2022-08-19T12:34:43.531Z,25.00
2022-08-19T12:38:06.119Z,24.94
2022-08-19T12:41:28.469Z,24.99
2022-08-19T12:44:50.271Z,25.05
2022-08-19T12:48:33.259Z,25.02
2022-08-19T12:51:56.148Z,24.99
2022-08-19T12:55:19.554Z,24.96
2022-08-19T12:58:48.948Z,25.04
2022-08-19T13:02:14.592Z,25.05
2022-08-19T13:05:38.623Z,24.95
2022-08-19T13:09:00.631Z,24.96
2022-08-19T13:12:24.900Z,24.90
2022-08-19T13:15:46.992Z,24.82
2022-08-19T13:19:08.714Z,24.82
2022-08-19T13:22:32.363Z,24.87
2022-08-19T13:26:03.056Z,24.78
2022-08-19T13:29:43.037Z,24.77
2022-08-19T13:33:15.930Z,24.64
2022-08-19T13:36:40.082Z,24.57
2022-08-19T13:40:04.164Z,24.63
2022-08-19T13:43:28.482Z,24.65
2022-08-19T13:46:54.333Z,24.70
2022-08-19T13:50:18.821Z,24.85
2022-08-19T13:53:47.402Z,25.05
2022-08-19T13:57:11.223Z,25.14
2022-08-19T14:00:36.091Z,25.13
2022-08-19T14:03:58.011Z,25.14
2022-08-19T14:07:19.735Z,25.20
2022-08-19T14:10:41.783Z,25.20
2022-08-19T14:14:04.941Z,25.31
2022-08-19T14:17:27.140Z,25.38
2022-08-19T14:20:48.953Z,25.24
2022-08-19T14:24:11.270Z,25.21
2022-08-19T14:27:34.998Z,25.19
2022-08-19T14:30:58.300Z,25.11
2022-08-19T14:34:20.266Z,25.12
2022-08-19T14:37:45.686Z,25.19
2022-08-19T14:41:20.865Z,25.34
2022-08-19T14:44:43.466Z,25.49
2022-08-19T14:48:09.159Z,25.69
2022-08-19T14:51:41.168Z,25.76
2022-08-19T14:55:02.919Z,25.84
2022-08-19T14:58:30.491Z,26.01
2022-08-19T15:01:52.534Z,25.96
2022-08-19T15:05:15.497Z,26.00
2022-08-19T15:08:39.965Z,26.02
2022-08-19T15:12:02.794Z,25.88
2022-08-19T15:15:24.888Z,25.71
2022-08-19T15:18:50.728Z,25.55
2022-08-19T15:22:14.456Z,25.45
2022-08-19T15:25:36.481Z,25.32
2022-08-19T15:28:58.922Z,25.27
2022-08-19T15:32:21.004Z,25.20
2022-08-19T15:35:43.143Z,25.23
2022-08-19T15:39:09.929Z,25.23
2022-08-19T15:42:31.945Z,25.07
2022-08-19T15:45:53.722Z,25.00
2022-08-19T15:49:18.399Z,25.01
2022-08-19T15:52:49.825Z,25.00
2022-08-19T15:56:13.390Z,24.99
2022-08-19T15:59:54.069Z,24.81
2022-08-19T16:03:33.823Z,24.80
2022-08-19T16:07:03.509Z,24.61
2022-08-19T16:10:27.978Z,24.57
2022-08-19T16:13:52.482Z,24.51
2022-08-19T16:17:14.126Z,24.38
2022-08-19T16:20:36.445Z,24.36
2022-08-19T16:24:00.256Z,24.31
2022-08-19T16:27:22.516Z,24.31
2022-08-19T16:30:50.953Z,24.13
2022-08-19T16:34:14.710Z,24.03
2022-08-19T16:37:36.260Z,23.85
2022-08-19T16:41:00.470Z,23.84
2022-08-19T16:44:22.342Z,23.73
2022-08-19T16:47:45.262Z,23.67
2022-08-19T16:51:09.374Z,23.70
2022-08-19T16:54:32.689Z,23.64
2022-08-19T16:57:54.370Z,23.65
2022-08-19T17:01:16.233Z,23.63
2022-08-19T17:04:39.398Z,23.61
2022-08-19T17:08:01.106Z,23.51
2022-08-19T17:11:26.330Z,23.39
2022-08-19T17:14:47.806Z,23.39
2022-08-19T17:18:11.520Z,23.43
2022-08-19T17:21:36.173Z,23.44
2022-08-19T17:24:58.719Z,23.38
2022-08-19T17:28:22.382Z,23.38
2022-08-19T17:31:44.172Z,23.52
2022-08-19T17:35:07.190Z,23.51
2022-08-19T17:38:30.104Z,23.49
2022-08-19T17:41:52.238Z,23.45
2022-08-19T17:45:16.269Z,23.27
2022-08-19T17:48:38.977Z,23.23
2022-08-19T17:52:00.754Z,23.16
2022-08-19T17:55:24.726Z,23.19
2022-08-19T17:58:53.216Z,23.11
2022-08-19T18:02:22.117Z,23.21
2022-08-19T18:05:44.730Z,23.24
2022-08-19T18:09:07.138Z,23.21
2022-08-19T18:12:30.077Z,23.24
2022-08-19T18:15:52.130Z,23.11
2022-08-19T18:19:14.029Z,23.15
2022-08-19T18:22:39.255Z,23.12
2022-08-19T18:26:01.920Z,23.15
2022-08-19T18:29:25.360Z,23.14
2022-08-19T18:32:49.618Z,23.04
2022-08-19T18:36:11.407Z,22.97
2022-08-19T18:39:50.479Z,22.97
2022-08-19T18:43:29.949Z,22.96
2022-08-19T18:47:24.982Z,22.97
2022-08-19T18:50:46.719Z,22.99
2022-08-19T18:54:10.781Z,22.92
2022-08-19T18:57:32.883Z,22.85
2022-08-19T19:00:57.381Z,22.77
2022-08-19T19:04:24.210Z,22.73
2022-08-19T19:07:46.879Z,22.67
2022-08-19T19:11:08.946Z,22.67
2022-08-19T19:14:49.155Z,22.55
2022-08-19T19:18:13.526Z,22.60
2022-08-19T19:21:36.523Z,22.63
2022-08-19T19:24:59.379Z,22.61
2022-08-19T19:28:25.546Z,22.62
2022-08-19T19:31:48.078Z,22.62
2022-08-19T19:35:10.655Z,22.50
2022-08-19T19:38:33.998Z,22.46
2022-08-19T19:41:55.819Z,22.45
2022-08-19T19:45:18.017Z,22.43
2022-08-19T19:48:40.047Z,22.42
2022-08-19T19:52:02.038Z,22.43
2022-08-19T19:55:26.462Z,22.48
2022-08-19T19:58:50.437Z,22.44
2022-08-19T20:02:12.424Z,22.47
2022-08-19T20:05:37.491Z,22.42
2022-08-19T20:09:12.759Z,22.34
2022-08-19T20:12:39.685Z,22.33
2022-08-19T20:16:03.733Z,22.30
2022-08-19T20:19:27.841Z,22.34
2022-08-19T20:22:49.538Z,22.35
2022-08-19T20:26:19.283Z,22.39
2022-08-19T20:29:54.915Z,22.45
2022-08-19T20:33:16.479Z,22.43
2022-08-19T20:36:40.235Z,22.45
2022-08-19T20:40:02.445Z,22.41
2022-08-19T20:43:24.302Z,22.38
2022-08-19T20:46:55.622Z,22.37
2022-08-19T20:50:19.801Z,22.42
2022-08-19T20:53:42.942Z,22.39
2022-08-19T20:57:05.527Z,22.33
2022-08-19T21:00:29.368Z,22.32
2022-08-19T21:03:52.821Z,22.32
2022-08-19T21:07:14.612Z,22.22
2022-08-19T21:10:40.537Z,22.22
2022-08-19T21:14:04.528Z,22.16
2022-08-19T21:17:26.302Z,22.12
2022-08-19T21:20:50.763Z,22.10
2022-08-19T21:24:12.794Z,22.07
2022-08-19T21:27:34.702Z,22.11
2022-08-19T21:30:58.142Z,22.10
2022-08-19T21:34:21.206Z,22.05
2022-08-19T21:37:44.642Z,22.06
2022-08-19T21:41:07.606Z,22.07
2022-08-19T21:44:29.326Z,22.03
2022-08-19T21:47:51.064Z,22.03
2022-08-19T21:51:12.745Z,22.03
2022-08-19T21:54:38.555Z,22.03
2022-08-19T21:58:01.786Z,22.07
2022-08-19T22:01:23.831Z,22.07
2022-08-19T22:04:46.427Z,22.09
2022-08-19T22:08:08.839Z,22.07
2022-08-19T22:11:31.993Z,22.03
2022-08-19T22:14:56.015Z,22.02
2022-08-19T22:18:17.875Z,21.96
2022-08-19T22:21:41.084Z,21.95
2022-08-19T22:25:08.774Z,21.94
2022-08-19T22:28:32.290Z,21.87
2022-08-19T22:31:54.402Z,21.88
2022-08-19T22:35:21.979Z,21.90
2022-08-19T22:38:43.750Z,21.88
2022-08-19T22:42:05.803Z,21.87
2022-08-19T22:45:30.431Z,21.86
2022-08-19T22:48:56.752Z,21.83
2022-08-19T22:52:23.686Z,21.77
2022-08-19T22:55:45.653Z,21.74
2022-08-19T22:59:08.576Z,21.75
2022-08-19T23:02:34.618Z,21.75
2022-08-19T23:05:57.131Z,21.74
2022-08-19T23:09:18.802Z,21.76
2022-08-19T23:12:49.207Z,21.77
2022-08-19T23:16:11.019Z,21.76
2022-08-19T23:19:34.509Z,21.78
2022-08-19T23:22:56.870Z,21.80
2022-08-19T23:26:18.545Z,21.81
2022-08-19T23:29:57.706Z,21.84
2022-08-19T23:33:24.584Z,21.85
2022-08-19T23:36:48.373Z,21.86
2022-08-19T23:40:11.215Z,21.87
2022-08-19T23:43:34.021Z,21.87
2022-08-19T23:46:55.747Z,21.87
2022-08-19T23:50:18.309Z,21.83
2022-08-19T23:53:43.099Z,21.79
2022-08-19T23:57:04.785Z,21.79
